EDMA/AGB METAR and TAF weather

Enter ICAO airport designator
Station Type Date Time Source
EDMA METAR 2020/12/06 01:20 UTC NOAA

EDMA 060120Z AUTO 00000KT 0800 R25/1000N // VV004 M00/M01 Q0998


Station Type Date Time Source
EDMA Decoded METAR 2020/12/06 01:20 UTC NOAA

Augsburg, Germany (EDMA) 48-26N 010-56E 463M
Dec 05, 2020 - 08:20 PM EST / 2020.12.06 0120 UTC
Wind: Calm:0
Visibility: less than 1 mile:0
Sky conditions: obscured
Temperature: 32 F (0 C)
Dew Point: 30 F (-1 C)
Relative Humidity: 92%
Pressure (altimeter): 29.47 in. Hg (0998 hPa)
ob: EDMA 060120Z AUTO 00000KT 0800 R25/1000N // VV004 M00/M01 Q0998
cycle: 1

Station Type Date Time Source
EDMA TAF 2010/02/22 13:50 UTC NOAA

METAR EDMA 221350Z 23006KT CAVOK 10/02 Q0996

Example: see airport list